sensor_id;sensor_type;location;lat;lon;timestamp;pressure;altitude;pressure_sealevel;temperature;humidity
48636;BME280;34429;52.332;5.614;2023-01-27T00:01:15;102544.72;;;4.88;100.00
48636;BME280;34429;52.332;5.614;2023-01-27T00:03:43;102553.47;;;4.91;100.00
48636;BME280;34429;52.332;5.614;2023-01-27T00:06:12;102555.44;;;4.86;100.00
48636;BME280;34429;52.332;5.614;2023-01-27T00:08:40;102560.97;;;4.82;100.00
48636;BME280;34429;52.332;5.614;2023-01-27T00:11:08;102559.69;;;4.92;100.00
48636;BME280;34429;52.332;5.614;2023-01-27T00:13:52;102567.88;;;4.87;100.00
48636;BME280;34429;52.332;5.614;2023-01-27T00:16:20;102554.97;;;4.99;100.00
48636;BME280;34429;52.332;5.614;2023-01-27T00:18:48;102562.97;;;4.99;100.00
48636;BME280;34429;52.332;5.614;2023-01-27T00:21:17;102548.78;;;4.98;100.00
48636;BME280;34429;52.332;5.614;2023-01-27T00:23:58;102553.00;;;5.04;100.00
48636;BME280;34429;52.332;5.614;2023-01-27T00:26:38;102550.66;;;4.95;100.00
48636;BME280;34429;52.332;5.614;2023-01-27T00:29:09;102548.97;;;4.94;100.00
48636;BME280;34429;52.332;5.614;2023-01-27T00:31:38;102554.34;;;4.92;100.00
48636;BME280;34429;52.332;5.614;2023-01-27T00:34:19;102551.16;;;4.82;100.00
48636;BME280;34429;52.332;5.614;2023-01-27T00:36:47;102556.97;;;4.94;100.00
48636;BME280;34429;52.332;5.614;2023-01-27T00:39:15;102554.53;;;4.87;100.00
48636;BME280;34429;52.332;5.614;2023-01-27T00:41:44;102555.50;;;4.85;100.00
48636;BME280;34429;52.332;5.614;2023-01-27T00:44:15;102553.47;;;4.91;100.00
48636;BME280;34429;52.332;5.614;2023-01-27T00:46:43;102557.88;;;4.93;100.00
48636;BME280;34429;52.332;5.614;2023-01-27T00:49:11;102556.53;;;5.04;100.00
48636;BME280;34429;52.332;5.614;2023-01-27T00:51:40;102559.28;;;5.03;100.00
48636;BME280;34429;52.332;5.614;2023-01-27T00:54:08;102553.81;;;5.06;100.00
48636;BME280;34429;52.332;5.614;2023-01-27T00:56:37;102559.63;;;5.17;100.00
48636;BME280;34429;52.332;5.614;2023-01-27T00:59:05;102555.56;;;5.07;100.00
48636;BME280;34429;52.332;5.614;2023-01-27T01:01:36;102566.66;;;4.96;100.00
48636;BME280;34429;52.332;5.614;2023-01-27T01:04:05;102560.06;;;5.05;100.00
48636;BME280;34429;52.332;5.614;2023-01-27T01:06:33;102558.47;;;5.01;100.00
48636;BME280;34429;52.332;5.614;2023-01-27T01:09:01;102567.41;;;5.00;100.00
48636;BME280;34429;52.332;5.614;2023-01-27T01:11:30;102573.59;;;5.00;100.00
48636;BME280;34429;52.332;5.614;2023-01-27T01:13:58;102556.38;;;4.85;100.00
48636;BME280;34429;52.332;5.614;2023-01-27T01:16:26;102568.78;;;4.86;100.00
48636;BME280;34429;52.332;5.614;2023-01-27T01:18:57;102572.13;;;4.91;100.00
48636;BME280;34429;52.332;5.614;2023-01-27T01:21:26;102574.25;;;4.83;100.00
48636;BME280;34429;52.332;5.614;2023-01-27T01:23:54;102582.69;;;4.95;100.00
48636;BME280;34429;52.332;5.614;2023-01-27T01:26:22;102578.53;;;4.87;100.00
48636;BME280;34429;52.332;5.614;2023-01-27T01:28:51;102583.63;;;4.94;100.00
48636;BME280;34429;52.332;5.614;2023-01-27T01:31:19;102585.72;;;4.85;100.00
48636;BME280;34429;52.332;5.614;2023-01-27T01:33:48;102586.47;;;4.89;100.00
48636;BME280;34429;52.332;5.614;2023-01-27T01:36:20;102587.88;;;4.74;100.00
48636;BME280;34429;52.332;5.614;2023-01-27T01:38:53;102586.22;;;4.71;100.00
48636;BME280;34429;52.332;5.614;2023-01-27T01:41:22;102586.97;;;4.75;100.00
48636;BME280;34429;52.332;5.614;2023-01-27T01:43:51;102586.41;;;4.67;100.00
48636;BME280;34429;52.332;5.614;2023-01-27T01:46:19;102596.66;;;4.78;100.00
48636;BME280;34429;52.332;5.614;2023-01-27T01:48:49;102589.63;;;4.75;100.00
48636;BME280;34429;52.332;5.614;2023-01-27T01:51:24;102587.94;;;4.72;100.00
48636;BME280;34429;52.332;5.614;2023-01-27T01:53:57;102593.88;;;4.81;100.00
48636;BME280;34429;52.332;5.614;2023-01-27T01:56:32;102597.66;;;4.75;100.00
48636;BME280;34429;52.332;5.614;2023-01-27T01:59:03;102605.66;;;4.75;100.00
48636;BME280;34429;52.332;5.614;2023-01-27T02:01:33;102605.66;;;4.75;100.00
48636;BME280;34429;52.332;5.614;2023-01-27T02:04:04;102603.31;;;4.66;100.00
48636;BME280;34429;52.332;5.614;2023-01-27T02:06:41;102607.81;;;4.64;100.00
48636;BME280;34429;52.332;5.614;2023-01-27T02:09:11;102602.72;;;4.57;100.00
48636;BME280;34429;52.332;5.614;2023-01-27T02:11:40;102598.72;;;4.44;100.00
48636;BME280;34429;52.332;5.614;2023-01-27T02:14:09;102601.13;;;4.52;100.00
48636;BME280;34429;52.332;5.614;2023-01-27T02:16:39;102613.03;;;4.42;100.00
48636;BME280;34429;52.332;5.614;2023-01-27T02:19:10;102607.69;;;4.43;100.00
48636;BME280;34429;52.332;5.614;2023-01-27T02:21:44;102608.25;;;4.51;100.00
48636;BME280;34429;52.332;5.614;2023-01-27T02:24:13;102601.19;;;4.50;100.00
48636;BME280;34429;52.332;5.614;2023-01-27T02:26:45;102601.41;;;4.44;100.00
48636;BME280;34429;52.332;5.614;2023-01-27T02:29:14;102607.69;;;4.42;100.00
48636;BME280;34429;52.332;5.614;2023-01-27T02:31:43;102606.94;;;4.38;100.00
48636;BME280;34429;52.332;5.614;2023-01-27T02:34:13;102615.00;;;4.36;100.00
48636;BME280;34429;52.332;5.614;2023-01-27T02:36:46;102615.69;;;4.43;100.00
48636;BME280;34429;52.332;5.614;2023-01-27T02:39:18;102618.94;;;4.51;100.00
48636;BME280;34429;52.332;5.614;2023-01-27T02:41:53;102618.94;;;4.51;100.00
48636;BME280;34429;52.332;5.614;2023-01-27T02:44:22;102621.97;;;4.41;100.00
48636;BME280;34429;52.332;5.614;2023-01-27T02:46:50;102617.28;;;4.47;100.00
48636;BME280;34429;52.332;5.614;2023-01-27T02:49:18;102618.53;;;4.37;100.00
48636;BME280;34429;52.332;5.614;2023-01-27T02:51:47;102629.09;;;4.40;100.00
48636;BME280;34429;52.332;5.614;2023-01-27T02:54:15;102620.53;;;4.30;100.00
48636;BME280;34429;52.332;5.614;2023-01-27T02:56:43;102630.66;;;4.46;100.00
48636;BME280;34429;52.332;5.614;2023-01-27T02:59:14;102623.22;;;4.55;100.00
48636;BME280;34429;52.332;5.614;2023-01-27T03:01:43;102629.00;;;4.43;100.00
48636;BME280;34429;52.332;5.614;2023-01-27T03:04:11;102631.75;;;4.40;100.00
48636;BME280;34429;52.332;5.614;2023-01-27T03:06:40;102627.66;;;4.56;100.00
48636;BME280;34429;52.332;5.614;2023-01-27T03:09:08;102630.03;;;4.39;100.00
48636;BME280;34429;52.332;5.614;2023-01-27T03:11:36;102633.13;;;4.52;100.00
48636;BME280;34429;52.332;5.614;2023-01-27T03:14:20;102631.47;;;4.49;100.00
48636;BME280;34429;52.332;5.614;2023-01-27T03:17:01;102625.44;;;4.43;100.00
48636;BME280;34429;52.332;5.614;2023-01-27T03:19:41;102619.19;;;4.44;100.00
48636;BME280;34429;52.332;5.614;2023-01-27T03:22:17;102627.03;;;4.48;100.00
48636;BME280;34429;52.332;5.614;2023-01-27T03:24:46;102613.81;;;4.45;100.00
48636;BME280;34429;52.332;5.614;2023-01-27T03:27:14;102619.03;;;4.48;100.00
48636;BME280;34429;52.332;5.614;2023-01-27T03:29:45;102618.34;;;4.43;100.00
48636;BME280;34429;52.332;5.614;2023-01-27T03:32:23;102621.09;;;4.40;100.00
48636;BME280;34429;52.332;5.614;2023-01-27T03:34:51;102631.56;;;4.46;100.00
48636;BME280;34429;52.332;5.614;2023-01-27T03:37:22;102627.94;;;4.47;100.00
48636;BME280;34429;52.332;5.614;2023-01-27T03:40:04;102627.84;;;4.50;100.00
48636;BME280;34429;52.332;5.614;2023-01-27T03:42:45;102620.78;;;4.49;100.00
48636;BME280;34429;52.332;5.614;2023-01-27T03:45:29;102630.38;;;4.55;100.00
48636;BME280;34429;52.332;5.614;2023-01-27T03:48:11;102628.56;;;4.55;100.00
48636;BME280;34429;52.332;5.614;2023-01-27T03:50:41;102641.25;;;4.74;100.00
48636;BME280;34429;52.332;5.614;2023-01-27T03:53:10;102636.34;;;4.62;100.00
48636;BME280;34429;52.332;5.614;2023-01-27T03:55:38;102636.47;;;4.59;100.00
48636;BME280;34429;52.332;5.614;2023-01-27T03:58:15;102639.06;;;4.60;100.00
48636;BME280;34429;52.332;5.614;2023-01-27T04:00:49;102643.31;;;4.66;100.00
48636;BME280;34429;52.332;5.614;2023-01-27T04:03:20;102650.19;;;4.73;100.00
48636;BME280;34429;52.332;5.614;2023-01-27T04:06:06;102653.16;;;4.64;100.00
48636;BME280;34429;52.332;5.614;2023-01-27T04:08:47;102642.72;;;4.57;100.00
48636;BME280;34429;52.332;5.614;2023-01-27T04:11:15;102647.97;;;4.59;100.00
48636;BME280;34429;52.332;5.614;2023-01-27T04:13:59;102646.69;;;4.71;100.00
48636;BME280;34429;52.332;5.614;2023-01-27T04:16:31;102650.59;;;4.61;100.00
48636;BME280;34429;52.332;5.614;2023-01-27T04:19:01;102654.09;;;4.63;100.00
48636;BME280;34429;52.332;5.614;2023-01-27T04:21:30;102659.00;;;4.75;100.00
48636;BME280;34429;52.332;5.614;2023-01-27T04:23:59;102652.13;;;4.68;100.00
48636;BME280;34429;52.332;5.614;2023-01-27T04:26:28;102659.06;;;4.73;100.00
48636;BME280;34429;52.332;5.614;2023-01-27T04:29:03;102653.88;;;4.69;100.00
48636;BME280;34429;52.332;5.614;2023-01-27T04:31:34;102653.16;;;4.64;100.00
48636;BME280;34429;52.332;5.614;2023-01-27T04:34:02;102658.59;;;4.61;100.00
48636;BME280;34429;52.332;5.614;2023-01-27T04:36:31;102664.81;;;4.61;100.00
48636;BME280;34429;52.332;5.614;2023-01-27T04:38:59;102664.66;;;4.66;100.00
48636;BME280;34429;52.332;5.614;2023-01-27T04:41:28;102665.00;;;4.56;100.00
48636;BME280;34429;52.332;5.614;2023-01-27T04:43:56;102663.81;;;4.65;100.00
48636;BME280;34429;52.332;5.614;2023-01-27T04:46:24;102662.16;;;4.61;100.00
48636;BME280;34429;52.332;5.614;2023-01-27T04:48:55;102659.31;;;4.66;100.00
48636;BME280;34429;52.332;5.614;2023-01-27T04:51:24;102656.44;;;4.72;100.00
48636;BME280;34429;52.332;5.614;2023-01-27T04:53:52;102657.34;;;4.71;100.00
48636;BME280;34429;52.332;5.614;2023-01-27T04:56:23;102662.81;;;4.68;100.00
48636;BME280;34429;52.332;5.614;2023-01-27T04:58:52;102663.81;;;4.65;100.00
48636;BME280;34429;52.332;5.614;2023-01-27T05:01:21;102661.06;;;4.67;100.00
48636;BME280;34429;52.332;5.614;2023-01-27T05:03:49;102663.69;;;4.68;100.00
48636;BME280;34429;52.332;5.614;2023-01-27T05:06:20;102665.31;;;4.72;100.00
48636;BME280;34429;52.332;5.614;2023-01-27T05:08:49;102662.22;;;4.60;100.00
48636;BME280;34429;52.332;5.614;2023-01-27T05:11:18;102664.50;;;4.70;100.00
48636;BME280;34429;52.332;5.614;2023-01-27T05:13:47;102672.56;;;4.69;100.00
48636;BME280;34429;52.332;5.614;2023-01-27T05:16:17;102677.94;;;4.67;100.00
48636;BME280;34429;52.332;5.614;2023-01-27T05:18:47;102672.78;;;4.63;100.00
48636;BME280;34429;52.332;5.614;2023-01-27T05:21:20;102674.22;;;4.46;100.00
48636;BME280;34429;52.332;5.614;2023-01-27T05:23:49;102672.94;;;4.58;100.00
48636;BME280;34429;52.332;5.614;2023-01-27T05:26:20;102683.50;;;4.61;100.00
48636;BME280;34429;52.332;5.614;2023-01-27T05:28:50;102683.38;;;4.64;100.00
48636;BME280;34429;52.332;5.614;2023-01-27T05:31:19;102678.81;;;4.68;100.00
48636;BME280;34429;52.332;5.614;2023-01-27T05:33:50;102677.38;;;4.57;100.00
48636;BME280;34429;52.332;5.614;2023-01-27T05:36:22;102682.53;;;4.62;100.00
48636;BME280;34429;52.332;5.614;2023-01-27T05:38:54;102678.16;;;4.61;100.00
48636;BME280;34429;52.332;5.614;2023-01-27T05:41:22;102687.13;;;4.59;100.00
48636;BME280;34429;52.332;5.614;2023-01-27T05:43:52;102687.19;;;4.57;100.00
48636;BME280;34429;52.332;5.614;2023-01-27T05:46:22;102692.25;;;4.65;100.00
48636;BME280;34429;52.332;5.614;2023-01-27T05:48:52;102696.88;;;4.60;100.00
48636;BME280;34429;52.332;5.614;2023-01-27T05:51:25;102695.34;;;4.52;100.00
48636;BME280;34429;52.332;5.614;2023-01-27T05:53:53;102704.94;;;4.58;100.00
48636;BME280;34429;52.332;5.614;2023-01-27T05:56:22;102707.72;;;4.55;100.00
48636;BME280;34429;52.332;5.614;2023-01-27T05:58:52;102707.84;;;4.50;100.00
48636;BME280;34429;52.332;5.614;2023-01-27T06:01:21;102708.72;;;4.51;100.00
48636;BME280;34429;52.332;5.614;2023-01-27T06:03:50;102709.00;;;4.43;100.00
48636;BME280;34429;52.332;5.614;2023-01-27T06:06:20;102721.09;;;4.53;100.00
48636;BME280;34429;52.332;5.614;2023-01-27T06:08:52;102709.22;;;4.62;100.00
48636;BME280;34429;52.332;5.614;2023-01-27T06:11:21;102716.78;;;4.49;100.00
48636;BME280;34429;52.332;5.614;2023-01-27T06:13:50;102720.47;;;4.45;100.00
48636;BME280;34429;52.332;5.614;2023-01-27T06:16:20;102720.25;;;4.51;100.00
48636;BME280;34429;52.332;5.614;2023-01-27T06:18:49;102717.63;;;4.50;100.00
48636;BME280;34429;52.332;5.614;2023-01-27T06:21:17;102722.22;;;4.46;100.00
48636;BME280;34429;52.332;5.614;2023-01-27T06:23:46;102727.06;;;4.33;100.00
48636;BME280;34429;52.332;5.614;2023-01-27T06:26:18;102733.63;;;4.23;100.00
48636;BME280;34429;52.332;5.614;2023-01-27T06:28:46;102732.16;;;4.41;100.00
48636;BME280;34429;52.332;5.614;2023-01-27T06:31:17;102730.69;;;4.31;100.00
48636;BME280;34429;52.332;5.614;2023-01-27T06:33:46;102738.50;;;4.37;100.00
48636;BME280;34429;52.332;5.614;2023-01-27T06:36:16;102739.66;;;4.28;100.00
48636;BME280;34429;52.332;5.614;2023-01-27T06:38:45;102739.28;;;4.41;100.00
48636;BME280;34429;52.332;5.614;2023-01-27T06:41:14;102748.09;;;4.43;100.00
48636;BME280;34429;52.332;5.614;2023-01-27T06:43:45;102743.72;;;4.40;100.00
48636;BME280;34429;52.332;5.614;2023-01-27T06:46:13;102738.59;;;4.34;100.00
48636;BME280;34429;52.332;5.614;2023-01-27T06:48:41;102749.16;;;4.37;100.00
48636;BME280;34429;52.332;5.614;2023-01-27T06:51:10;102738.28;;;4.45;100.00
48636;BME280;34429;52.332;5.614;2023-01-27T06:53:38;102723.38;;;4.37;100.00
48636;BME280;34429;52.332;5.614;2023-01-27T06:56:07;102732.41;;;4.33;100.00
48636;BME280;34429;52.332;5.614;2023-01-27T06:58:35;102732.78;;;4.21;100.00
48636;BME280;34429;52.332;5.614;2023-01-27T07:01:06;102724.47;;;4.32;100.00
48636;BME280;34429;52.332;5.614;2023-01-27T07:03:34;102725.25;;;4.34;100.00
48636;BME280;34429;52.332;5.614;2023-01-27T07:06:03;102733.47;;;4.28;100.00
48636;BME280;34429;52.332;5.614;2023-01-27T07:08:32;102739.72;;;4.27;100.00
48636;BME280;34429;52.332;5.614;2023-01-27T07:11:01;102730.94;;;4.23;100.00
48636;BME280;34429;52.332;5.614;2023-01-27T07:13:30;102742.56;;;4.20;100.00
48636;BME280;34429;52.332;5.614;2023-01-27T07:15:58;102729.00;;;4.28;100.00
48636;BME280;34429;52.332;5.614;2023-01-27T07:18:30;102737.84;;;4.30;100.00
48636;BME280;34429;52.332;5.614;2023-01-27T07:21:05;102740.81;;;4.19;100.00
48636;BME280;34429;52.332;5.614;2023-01-27T07:23:33;102747.09;;;4.18;100.00
48636;BME280;34429;52.332;5.614;2023-01-27T07:26:01;102746.84;;;4.26;100.00
48636;BME280;34429;52.332;5.614;2023-01-27T07:28:30;102747.13;;;4.17;100.00
48636;BME280;34429;52.332;5.614;2023-01-27T07:31:00;102742.69;;;4.17;100.00
48636;BME280;34429;52.332;5.614;2023-01-27T07:33:31;102759.72;;;4.12;100.00
48636;BME280;34429;52.332;5.614;2023-01-27T07:35:59;102762.13;;;4.19;100.00
48636;BME280;34429;52.332;5.614;2023-01-27T07:38:27;102764.94;;;4.15;100.00
48636;BME280;34429;52.332;5.614;2023-01-27T07:40:56;102761.47;;;4.13;100.00
48636;BME280;34429;52.332;5.614;2023-01-27T07:43:24;102770.69;;;4.31;100.00
48636;BME280;34429;52.332;5.614;2023-01-27T07:45:53;102771.75;;;4.25;100.00
48636;BME280;34429;52.332;5.614;2023-01-27T07:48:21;102766.75;;;4.14;100.00
48636;BME280;34429;52.332;5.614;2023-01-27T07:50:53;102777.75;;;4.03;100.00
48636;BME280;34429;52.332;5.614;2023-01-27T07:53:21;102771.28;;;4.11;100.00
48636;BME280;34429;52.332;5.614;2023-01-27T07:55:49;102778.78;;;4.28;100.00
48636;BME280;34429;52.332;5.614;2023-01-27T07:58:18;102770.06;;;4.23;100.00
48636;BME280;34429;52.332;5.614;2023-01-27T08:00:46;102771.69;;;4.27;100.00
48636;BME280;34429;52.332;5.614;2023-01-27T08:03:24;102771.09;;;4.18;100.00
48636;BME280;34429;52.332;5.614;2023-01-27T08:05:55;102778.97;;;4.21;100.00
48636;BME280;34429;52.332;5.614;2023-01-27T08:08:23;102777.97;;;4.26;100.00
48636;BME280;34429;52.332;5.614;2023-01-27T08:10:52;102777.78;;;4.32;100.00
48636;BME280;34429;52.332;5.614;2023-01-27T08:13:20;102789.28;;;4.32;100.00
48636;BME280;34429;52.332;5.614;2023-01-27T08:15:54;102784.91;;;4.30;100.00
48636;BME280;34429;52.332;5.614;2023-01-27T08:18:22;102783.91;;;4.34;100.00
48636;BME280;34429;52.332;5.614;2023-01-27T08:20:51;102785.97;;;4.26;100.00
48636;BME280;34429;52.332;5.614;2023-01-27T08:23:22;102782.44;;;4.24;100.00
48636;BME280;34429;52.332;5.614;2023-01-27T08:25:51;102792.50;;;4.15;100.00
48636;BME280;34429;52.332;5.614;2023-01-27T08:28:20;102791.88;;;4.06;100.00
48636;BME280;34429;52.332;5.614;2023-01-27T08:30:49;102790.84;;;4.11;100.00
48636;BME280;34429;52.332;5.614;2023-01-27T08:33:18;102790.41;;;4.25;100.00
48636;BME280;34429;52.332;5.614;2023-01-27T08:35:47;102787.38;;;4.37;100.00
48636;BME280;34429;52.332;5.614;2023-01-27T08:38:17;102797.03;;;4.40;100.00
48636;BME280;34429;52.332;5.614;2023-01-27T08:40:48;102794.09;;;4.49;100.00
48636;BME280;34429;52.332;5.614;2023-01-27T08:43:17;102794.22;;;4.46;100.00
48636;BME280;34429;52.332;5.614;2023-01-27T08:45:45;102796.28;;;4.36;100.00
48636;BME280;34429;52.332;5.614;2023-01-27T08:48:13;102796.19;;;4.39;100.00
48636;BME280;34429;52.332;5.614;2023-01-27T08:50:42;102793.75;;;4.32;100.00
48636;BME280;34429;52.332;5.614;2023-01-27T08:53:10;102799.00;;;4.35;100.00
48636;BME280;34429;52.332;5.614;2023-01-27T08:55:39;102809.13;;;4.52;100.00
48636;BME280;34429;52.332;5.614;2023-01-27T08:58:10;102809.75;;;4.60;100.00
48636;BME280;34429;52.332;5.614;2023-01-27T09:00:38;102807.25;;;4.55;100.00
48636;BME280;34429;52.332;5.614;2023-01-27T09:03:06;102806.66;;;4.46;100.00
48636;BME280;34429;52.332;5.614;2023-01-27T09:05:35;102809.66;;;4.35;100.00
48636;BME280;34429;52.332;5.614;2023-01-27T09:08:04;102799.84;;;4.35;100.00
48636;BME280;34429;52.332;5.614;2023-01-27T09:10:36;102811.69;;;4.27;100.00
48636;BME280;34429;52.332;5.614;2023-01-27T09:13:05;102818.91;;;4.23;100.00
48636;BME280;34429;52.332;5.614;2023-01-27T09:15:36;102823.38;;;4.23;100.00
48636;BME280;34429;52.332;5.614;2023-01-27T09:18:05;102832.25;;;4.23;100.00
48636;BME280;34429;52.332;5.614;2023-01-27T09:20:33;102819.72;;;4.25;100.00
48636;BME280;34429;52.332;5.614;2023-01-27T09:23:02;102831.44;;;4.19;100.00
48636;BME280;34429;52.332;5.614;2023-01-27T09:25:49;102833.19;;;4.20;100.00
48636;BME280;34429;52.332;5.614;2023-01-27T09:28:17;102841.84;;;4.29;100.00
48636;BME280;34429;52.332;5.614;2023-01-27T09:30:46;102843.31;;;4.39;100.00
48636;BME280;34429;52.332;5.614;2023-01-27T09:33:14;102847.38;;;4.23;100.00
48636;BME280;34429;52.332;5.614;2023-01-27T09:35:45;102833.59;;;4.36;100.00
48636;BME280;34429;52.332;5.614;2023-01-27T09:38:17;102838.44;;;4.24;100.00
48636;BME280;34429;52.332;5.614;2023-01-27T09:41:03;102846.88;;;4.38;100.00
48636;BME280;34429;52.332;5.614;2023-01-27T09:43:52;102839.34;;;4.52;100.00
48636;BME280;34429;52.332;5.614;2023-01-27T09:46:49;102850.22;;;4.46;100.00
48636;BME280;34429;52.332;5.614;2023-01-27T09:49:36;102852.13;;;4.41;100.00
48636;BME280;34429;52.332;5.614;2023-01-27T09:52:18;102856.06;;;4.57;100.00
48636;BME280;34429;52.332;5.614;2023-01-27T09:54:58;102854.31;;;4.85;100.00
48636;BME280;34429;52.332;5.614;2023-01-27T09:57:40;102844.19;;;4.95;100.00
48636;BME280;34429;52.332;5.614;2023-01-27T10:00:21;102858.75;;;5.13;100.00
48636;BME280;34429;52.332;5.614;2023-01-27T10:03:10;102856.53;;;4.99;100.00
48636;BME280;34429;52.332;5.614;2023-01-27T10:06:08;102860.13;;;4.98;100.00
48636;BME280;34429;52.332;5.614;2023-01-27T10:08:56;102869.41;;;4.86;100.00
48636;BME280;34429;52.332;5.614;2023-01-27T10:11:37;102858.31;;;4.71;100.00
48636;BME280;34429;52.332;5.614;2023-01-27T10:14:22;102863.69;;;4.70;100.00
48636;BME280;34429;52.332;5.614;2023-01-27T10:17:06;102857.41;;;4.71;100.00
48636;BME280;34429;52.332;5.614;2023-01-27T10:19:51;102849.56;;;4.66;100.00
48636;BME280;34429;52.332;5.614;2023-01-27T10:22:32;102856.28;;;4.78;100.00
48636;BME280;34429;52.332;5.614;2023-01-27T10:25:12;102854.88;;;4.95;100.00
48636;BME280;34429;52.332;5.614;2023-01-27T10:27:46;102872.16;;;5.11;100.00
48636;BME280;34429;52.332;5.614;2023-01-27T10:30:22;102861.00;;;4.98;100.00
48636;BME280;34429;52.332;5.614;2023-01-27T10:32:55;102871.81;;;4.94;100.00
48636;BME280;34429;52.332;5.614;2023-01-27T10:35:33;102864.72;;;4.93;100.00
48636;BME280;34429;52.332;5.614;2023-01-27T10:38:09;102874.19;;;5.03;100.00
48636;BME280;34429;52.332;5.614;2023-01-27T10:40:48;102867.25;;;4.97;100.00
48636;BME280;34429;52.332;5.614;2023-01-27T10:43:24;102863.50;;;5.03;100.00
48636;BME280;34429;52.332;5.614;2023-01-27T10:46:05;102859.56;;;5.15;100.00
48636;BME280;34429;52.332;5.614;2023-01-27T10:48:41;102861.41;;;5.13;100.00
48636;BME280;34429;52.332;5.614;2023-01-27T10:51:16;102866.66;;;5.16;100.00
48636;BME280;34429;52.332;5.614;2023-01-27T10:53:53;102855.59;;;5.26;100.00
48636;BME280;34429;52.332;5.614;2023-01-27T10:56:30;102862.25;;;5.40;100.00
48636;BME280;34429;52.332;5.614;2023-01-27T10:59:04;102862.09;;;5.44;100.00
48636;BME280;34429;52.332;5.614;2023-01-27T11:01:38;102866.38;;;5.23;100.00
48636;BME280;34429;52.332;5.614;2023-01-27T11:04:11;102859.81;;;5.34;100.00
48636;BME280;34429;52.332;5.614;2023-01-27T11:06:41;102857.31;;;5.54;100.00
48636;BME280;34429;52.332;5.614;2023-01-27T11:11:58;102857.66;;;5.45;100.00
48636;BME280;34429;52.332;5.614;2023-01-27T11:14:29;102857.38;;;5.53;100.00
48636;BME280;34429;52.332;5.614;2023-01-27T11:17:02;102851.28;;;5.49;100.00
48636;BME280;34429;52.332;5.614;2023-01-27T11:19:42;102846.50;;;5.32;100.00
48636;BME280;34429;52.332;5.614;2023-01-27T11:22:22;102850.09;;;5.56;100.00
48636;BME280;34429;52.332;5.614;2023-01-27T11:24:57;102845.69;;;5.81;100.00
48636;BME280;34429;52.332;5.614;2023-01-27T11:27:48;102835.84;;;5.57;100.00
48636;BME280;34429;52.332;5.614;2023-01-27T11:30:24;102847.50;;;5.80;100.00
48636;BME280;34429;52.332;5.614;2023-01-27T11:33:01;102838.22;;;5.65;100.00
48636;BME280;34429;52.332;5.614;2023-01-27T11:35:32;102834.31;;;5.50;100.00
48636;BME280;34429;52.332;5.614;2023-01-27T11:38:00;102836.72;;;5.83;100.00
48636;BME280;34429;52.332;5.614;2023-01-27T11:40:32;102827.53;;;5.90;100.00
48636;BME280;34429;52.332;5.614;2023-01-27T11:43:04;102826.25;;;6.01;100.00
48636;BME280;34429;52.332;5.614;2023-01-27T11:45:34;102821.75;;;6.03;100.00
48636;BME280;34429;52.332;5.614;2023-01-27T11:48:06;102827.63;;;5.87;100.00
48636;BME280;34429;52.332;5.614;2023-01-27T11:50:40;102825.78;;;5.89;100.00
48636;BME280;34429;52.332;5.614;2023-01-27T11:53:13;102824.41;;;6.03;100.00
48636;BME280;34429;52.332;5.614;2023-01-27T11:55:47;102819.75;;;6.08;100.00
48636;BME280;34429;52.332;5.614;2023-01-27T11:58:24;102814.66;;;6.02;100.00
48636;BME280;34429;52.332;5.614;2023-01-27T12:00:55;102816.59;;;5.96;100.00
48636;BME280;34429;52.332;5.614;2023-01-27T12:03:42;102811.13;;;5.76;100.00
48636;BME280;34429;52.332;5.614;2023-01-27T12:06:15;102817.84;;;5.63;100.00
48636;BME280;34429;52.332;5.614;2023-01-27T12:08:46;102819.56;;;5.64;100.00
48636;BME280;34429;52.332;5.614;2023-01-27T12:11:20;102804.75;;;5.30;100.00
48636;BME280;34429;52.332;5.614;2023-01-27T12:13:53;102804.06;;;5.24;100.00
48636;BME280;34429;52.332;5.614;2023-01-27T12:16:25;102798.78;;;5.48;100.00
48636;BME280;34429;52.332;5.614;2023-01-27T12:18:58;102795.66;;;5.35;100.00
48636;BME280;34429;52.332;5.614;2023-01-27T12:21:43;102807.81;;;5.44;100.00
48636;BME280;34429;52.332;5.614;2023-01-27T12:24:21;102806.63;;;5.53;100.00
48636;BME280;34429;52.332;5.614;2023-01-27T12:26:52;102800.63;;;5.46;100.00
48636;BME280;34429;52.332;5.614;2023-01-27T12:29:26;102805.75;;;5.52;100.00
48636;BME280;34429;52.332;5.614;2023-01-27T12:31:57;102803.78;;;5.57;100.00
48636;BME280;34429;52.332;5.614;2023-01-27T12:34:30;102806.41;;;5.59;100.00
48636;BME280;34429;52.332;5.614;2023-01-27T12:37:01;102798.78;;;5.48;100.00
48636;BME280;34429;52.332;5.614;2023-01-27T12:39:39;102804.66;;;5.33;100.00
48636;BME280;34429;52.332;5.614;2023-01-27T12:42:31;102802.94;;;5.32;100.00
48636;BME280;34429;52.332;5.614;2023-01-27T12:45:16;102809.81;;;5.39;100.00
48636;BME280;34429;52.332;5.614;2023-01-27T12:47:54;102798.28;;;5.37;100.00
48636;BME280;34429;52.332;5.614;2023-01-27T12:50:25;102801.94;;;5.34;100.00
48636;BME280;34429;52.332;5.614;2023-01-27T12:53:04;102792.94;;;5.37;100.00
48636;BME280;34429;52.332;5.614;2023-01-27T12:55:34;102794.41;;;5.20;100.00
48636;BME280;34429;52.332;5.614;2023-01-27T12:58:03;102797.09;;;5.20;100.00
48636;BME280;34429;52.332;5.614;2023-01-27T13:00:34;102793.75;;;5.14;100.00
48636;BME280;34429;52.332;5.614;2023-01-27T13:03:05;102791.44;;;5.03;100.00
48636;BME280;34429;52.332;5.614;2023-01-27T13:05:38;102793.59;;;4.91;100.00
48636;BME280;34429;52.332;5.614;2023-01-27T13:08:12;102794.34;;;4.97;100.00
48636;BME280;34429;52.332;5.614;2023-01-27T13:10:49;102795.44;;;5.16;100.00
48636;BME280;34429;52.332;5.614;2023-01-27T13:13:22;102786.91;;;5.05;100.00
48636;BME280;34429;52.332;5.614;2023-01-27T13:15:55;102789.50;;;5.08;100.00
48636;BME280;34429;52.332;5.614;2023-01-27T13:18:24;102795.88;;;5.04;100.00